LSGC Airport Information

Runway Information
Runway 06 Length 3707 ft width 89 ft
Elevation 3368 ft Threshold 230 ft Heading 54
Runway 24 Length 3707 ft Width 89 ft
Elevation 3343 ft Threshold 328 ft Heading 234
Airport Frequencies
Type TWR Name TWR Frequency 118.125 MHZ
Airport Navaids
Type NDB Name Les Eplatures Frequency 403 KHZ
Airport Weather Information & NOTAM
ADDS - METARS form results

(2120 UTC 21 July 2018)
 
METAR text: LSGC 212050Z AUTO 00000KT CAVOK 12/12 Q1018
Conditions at: LSGC (LES EPLATURES , CH) observed 2050 UTC 21 July 2018
Temperature: 12.0°C (54°F)
Dewpoint: 12.0°C (54°F) [RH = 100%]
Pressure (altimeter): 30.06 inches Hg (1018.0 mb)
Winds: calm
Visibility: 6 or more miles (10+ km)
Ceiling: ceiling and visibility are OK
Clouds: unknown
Weather: no significant weather observed at this time